KMGC/MGC METAR and TAF weather

Enter ICAO airport designator
Station Type Date Time Source
KMGC METAR 2018/12/10 02:55 UTC NOAA

KMGC 100255Z AUTO 36005KT 10SM OVC014 M02/M04 A3030 RMK AO2


Station Type Date Time Source
KMGC Decoded METAR 2018/12/10 02:55 UTC NOAA

Station name not available
Dec 09, 2018 - 09:55 PM EST / 2018.12.10 0255 UTC
Wind: from the N (360 degrees) at 6 MPH (5 KT):0
Visibility: 10 mile(s):0
Sky conditions: overcast
Temperature: 28 F (-2 C)
Windchill: 21 F (-6 C):1
Dew Point: 24 F (-4 C)
Relative Humidity: 86%
Pressure (altimeter): 30.3 in. Hg (1026 hPa)
ob: KMGC 100255Z AUTO 36005KT 10SM OVC014 M02/M04 A3030 RMK AO2
cycle: 3

Station Type Date Time Source
KMGC TAF UTC NOAA

Error!


Example: see airport list